createdAt,value
2022-12-28T00:01:41.955Z,98565.19
2022-12-28T00:04:08.706Z,98569.81
2022-12-28T00:06:35.406Z,98579.13
2022-12-28T00:09:02.029Z,98574.59
2022-12-28T00:11:30.960Z,98569.81
2022-12-28T00:13:57.936Z,98573.69
2022-12-28T00:16:24.701Z,98563.41
2022-12-28T00:18:51.417Z,98562.59
2022-12-28T00:21:18.047Z,98558.50
2022-12-28T00:23:44.676Z,98555.56
2022-12-28T00:26:11.371Z,98554.66
2022-12-28T00:28:38.098Z,98558.81
2022-12-28T00:31:04.775Z,98567.09
2022-12-28T00:33:31.479Z,98555.56
2022-12-28T00:35:58.165Z,98556.25
2022-12-28T00:38:24.854Z,98566.16
2022-12-28T00:40:51.531Z,98580.81
2022-12-28T00:43:18.183Z,98580.47
2022-12-28T00:45:44.968Z,98568.31
2022-12-28T00:48:11.629Z,98579.66
2022-12-28T00:50:38.275Z,98574.44
2022-12-28T00:53:04.941Z,98578.72
2022-12-28T00:55:31.634Z,98580.63
2022-12-28T00:57:58.310Z,98583.91
2022-12-28T01:00:24.927Z,98594.34
2022-12-28T01:02:51.646Z,98594.22
2022-12-28T01:05:19.816Z,98601.78
2022-12-28T01:07:46.551Z,98601.06
2022-12-28T01:10:13.245Z,98596.09
2022-12-28T01:12:39.950Z,98589.28
2022-12-28T01:15:06.599Z,98584.13
2022-12-28T01:17:33.285Z,98587.06
2022-12-28T01:19:59.971Z,98581.34
2022-12-28T01:22:26.694Z,98581.34
2022-12-28T01:24:53.440Z,98567.53
2022-12-28T01:27:20.142Z,98567.91
2022-12-28T01:29:46.804Z,98567.91
2022-12-28T01:32:13.538Z,98565.56
2022-12-28T01:34:40.238Z,98562.19
2022-12-28T01:37:06.928Z,98558.91
2022-12-28T01:39:33.634Z,98554.75
2022-12-28T01:42:00.290Z,98548.38
2022-12-28T01:44:27.011Z,98548.63
2022-12-28T01:46:53.666Z,98544.19
2022-12-28T01:49:20.348Z,98537.38
2022-12-28T01:51:47.053Z,98540.88
2022-12-28T01:54:13.716Z,98538.75
2022-12-28T01:56:40.389Z,98538.31
2022-12-28T01:59:07.062Z,98529.53
2022-12-28T02:01:33.788Z,98526.47
2022-12-28T02:04:00.735Z,98524.16
2022-12-28T02:06:27.439Z,98527.97
2022-12-28T02:08:54.109Z,98535.59
2022-12-28T02:11:20.765Z,98543.16
2022-12-28T02:13:47.406Z,98534.75
2022-12-28T02:16:14.134Z,98533.22
2022-12-28T02:18:40.890Z,98533.09
2022-12-28T02:21:08.345Z,98536.56
2022-12-28T02:23:34.993Z,98522.34
2022-12-28T02:26:01.637Z,98514.28
2022-12-28T02:28:28.265Z,98512.75
2022-12-28T02:30:55.066Z,98511.25
2022-12-28T02:33:21.790Z,98506.16
2022-12-28T02:35:48.496Z,98509.72
2022-12-28T02:38:15.193Z,98514.78
2022-12-28T02:40:41.827Z,98507.19
2022-12-28T02:43:08.522Z,98502.13
2022-12-28T02:45:35.204Z,98493.25
2022-12-28T02:48:01.839Z,98494.41
2022-12-28T02:50:28.566Z,98493.13
2022-12-28T02:52:55.209Z,98493.69
2022-12-28T02:55:21.868Z,98492.06
2022-12-28T02:57:48.570Z,98485.22
2022-12-28T03:00:15.293Z,98478.13
2022-12-28T03:02:42.066Z,98476.22
2022-12-28T03:05:08.788Z,98481.16
2022-12-28T03:07:35.399Z,98482.13
2022-12-28T03:10:02.116Z,98475.63
2022-12-28T03:12:28.800Z,98474.56
2022-12-28T03:14:55.479Z,98464.50
2022-12-28T03:17:22.141Z,98457.06
2022-12-28T03:19:48.785Z,98458.84
2022-12-28T03:22:15.444Z,98452.34
2022-12-28T03:24:42.097Z,98452.56
2022-12-28T03:27:09.372Z,98450.44
2022-12-28T03:29:36.157Z,98442.41
2022-12-28T03:32:02.995Z,98431.38
2022-12-28T03:34:29.617Z,98439.31
2022-12-28T03:36:56.249Z,98434.94
2022-12-28T03:39:22.965Z,98435.53
2022-12-28T03:41:49.617Z,98439.69
2022-12-28T03:44:16.262Z,98445.34
2022-12-28T03:46:42.981Z,98453.38
2022-12-28T03:49:09.700Z,98450.88
2022-12-28T03:51:36.376Z,98458.34
2022-12-28T03:54:03.022Z,98455.88
2022-12-28T03:56:29.721Z,98440.88
2022-12-28T03:58:56.367Z,98440.59
2022-12-28T04:01:23.187Z,98438.44
2022-12-28T04:03:49.957Z,98442.38
2022-12-28T04:06:16.640Z,98436.47
2022-12-28T04:08:43.378Z,98432.94
2022-12-28T04:11:09.993Z,98429.84
2022-12-28T04:13:36.670Z,98422.84
2022-12-28T04:16:03.345Z,98417.81
2022-12-28T04:18:30.084Z,98429.94
2022-12-28T04:20:56.818Z,98439.75
2022-12-28T04:23:23.445Z,98436.56
2022-12-28T04:25:50.146Z,98438.06
2022-12-28T04:28:16.853Z,98436.03
2022-12-28T04:30:43.522Z,98439.41
2022-12-28T04:33:10.144Z,98431.50
2022-12-28T04:35:36.805Z,98435.16
2022-12-28T04:38:03.460Z,98432.69
2022-12-28T04:40:30.181Z,98431.13
2022-12-28T04:42:56.871Z,98435.91
2022-12-28T04:45:23.504Z,98435.41
2022-12-28T04:47:50.311Z,98426.69
2022-12-28T04:50:17.171Z,98430.94
2022-12-28T04:52:44.007Z,98429.16
2022-12-28T04:55:32.740Z,98431.69
2022-12-28T04:57:57.298Z,98432.94
2022-12-28T05:00:24.043Z,98429.06
2022-12-28T05:02:50.780Z,98430.63
2022-12-28T05:05:17.426Z,98432.28
2022-12-28T05:07:44.651Z,98435.59
2022-12-28T05:10:11.328Z,98433.25
2022-12-28T05:12:37.972Z,98436.66
2022-12-28T05:15:04.610Z,98439.72
2022-12-28T05:17:31.264Z,98438.09
2022-12-28T05:19:57.969Z,98431.47
2022-12-28T05:22:24.619Z,98429.78
2022-12-28T05:24:51.314Z,98418.78
2022-12-28T05:27:17.971Z,98418.00
2022-12-28T05:29:44.621Z,98419.31
2022-12-28T05:32:11.327Z,98420.88
2022-12-28T05:34:40.089Z,98420.66
2022-12-28T05:37:06.775Z,98430.81
2022-12-28T05:39:33.632Z,98430.19
2022-12-28T05:42:00.324Z,98431.50
2022-12-28T05:44:27.006Z,98423.88
2022-12-28T05:46:53.703Z,98433.09
2022-12-28T05:49:20.507Z,98424.34
2022-12-28T05:51:47.389Z,98441.59
2022-12-28T05:54:14.001Z,98438.69
2022-12-28T05:56:40.683Z,98429.22
2022-12-28T05:59:07.296Z,98436.69
2022-12-28T06:01:34.015Z,98431.03
2022-12-28T06:04:00.743Z,98431.84
2022-12-28T06:06:27.377Z,98425.47
2022-12-28T06:08:54.200Z,98429.22
2022-12-28T06:11:20.876Z,98424.75
2022-12-28T06:13:47.544Z,98421.47
2022-12-28T06:16:14.206Z,98417.91
2022-12-28T06:18:40.932Z,98417.91
2022-12-28T06:21:07.621Z,98409.75
2022-12-28T06:23:34.320Z,98410.94
2022-12-28T06:26:00.974Z,98397.78
2022-12-28T06:28:27.653Z,98395.94
2022-12-28T06:30:54.333Z,98395.78
2022-12-28T06:33:21.037Z,98389.75
2022-12-28T06:35:47.751Z,98387.22
2022-12-28T06:38:14.406Z,98386.47
2022-12-28T06:41:11.673Z,98380.13
2022-12-28T06:43:27.658Z,98380.50
2022-12-28T06:45:54.331Z,98382.59
2022-12-28T06:48:21.076Z,98380.09
2022-12-28T06:50:47.705Z,98372.78
2022-12-28T06:53:14.386Z,98374.09
2022-12-28T06:55:40.999Z,98362.28
2022-12-28T06:58:07.660Z,98351.19
2022-12-28T07:00:34.413Z,98350.97
2022-12-28T07:03:01.135Z,98361.56
2022-12-28T07:05:27.895Z,98362.56
2022-12-28T07:07:54.760Z,98366.09
2022-12-28T07:10:21.460Z,98369.53
2022-12-28T07:12:48.092Z,98354.19
2022-12-28T07:15:14.789Z,98361.78
2022-12-28T07:17:41.412Z,98350.53
2022-12-28T07:20:08.054Z,98374.88
2022-12-28T07:22:34.723Z,98367.06
2022-12-28T07:25:01.426Z,98355.13
2022-12-28T07:27:28.108Z,98360.81
2022-12-28T07:29:54.736Z,98364.47
2022-12-28T07:32:21.375Z,98365.06
2022-12-28T07:34:48.075Z,98366.72
2022-12-28T07:37:14.744Z,98364.69
2022-12-28T07:39:41.463Z,98362.63
2022-12-28T07:42:08.111Z,98356.00
2022-12-28T07:44:38.206Z,98355.19
2022-12-28T07:47:05.052Z,98351.25
2022-12-28T07:49:31.741Z,98347.47
2022-12-28T07:51:58.479Z,98351.28
2022-12-28T07:54:25.205Z,98346.91
2022-12-28T07:56:51.977Z,98352.34
2022-12-28T07:59:18.716Z,98356.56
2022-12-28T08:01:45.442Z,98350.38
2022-12-28T08:04:12.208Z,98343.16
2022-12-28T08:06:38.904Z,98352.25
2022-12-28T08:09:05.625Z,98358.78
2022-12-28T08:11:32.356Z,98363.63
2022-12-28T08:13:59.040Z,98365.69
2022-12-28T08:16:25.733Z,98367.31
2022-12-28T08:18:52.403Z,98372.84
2022-12-28T08:21:19.036Z,98368.16
2022-12-28T08:23:45.683Z,98381.16
2022-12-28T08:26:12.404Z,98375.72
2022-12-28T08:28:39.062Z,98383.88
2022-12-28T08:31:05.825Z,98376.41
2022-12-28T08:33:32.472Z,98378.03
2022-12-28T08:35:59.148Z,98386.22
2022-12-28T08:38:25.780Z,98382.19
2022-12-28T08:40:57.229Z,98370.09
2022-12-28T08:43:24.272Z,98371.47
2022-12-28T08:45:51.007Z,98367.97
2022-12-28T08:48:17.724Z,98371.13
2022-12-28T08:50:44.446Z,98377.34
2022-12-28T08:53:11.086Z,98389.53
2022-12-28T08:55:37.758Z,98371.19
2022-12-28T08:58:04.384Z,98364.47
2022-12-28T09:00:31.058Z,98357.81
2022-12-28T09:02:57.842Z,98364.28
2022-12-28T09:05:24.584Z,98362.44
2022-12-28T09:07:56.167Z,98364.34
2022-12-28T09:10:25.960Z,98357.28
2022-12-28T09:12:52.621Z,98356.06
2022-12-28T09:15:19.284Z,98362.84
2022-12-28T09:17:45.969Z,98373.06
2022-12-28T09:20:12.651Z,98371.53
2022-12-28T09:22:39.428Z,98372.38
2022-12-28T09:25:06.167Z,98373.88
2022-12-28T09:27:32.902Z,98370.97
2022-12-28T09:29:59.584Z,98362.84
2022-12-28T09:32:26.999Z,98344.84
2022-12-28T09:34:53.644Z,98352.41
2022-12-28T09:37:20.325Z,98342.03
2022-12-28T09:39:47.068Z,98339.09
2022-12-28T09:42:13.757Z,98335.53
2022-12-28T09:44:40.446Z,98333.47
2022-12-28T09:47:07.167Z,98331.78
2022-12-28T09:49:33.817Z,98325.09
2022-12-28T09:52:00.523Z,98314.81
2022-12-28T09:54:27.302Z,98317.31
2022-12-28T09:56:53.953Z,98320.19
2022-12-28T09:59:20.735Z,98315.50
2022-12-28T10:01:47.442Z,98315.03
2022-12-28T10:04:14.161Z,98312.47
2022-12-28T10:06:40.847Z,98312.47
2022-12-28T10:09:07.557Z,98304.88
2022-12-28T10:11:36.202Z,98302.50
2022-12-28T10:14:02.888Z,98297.78
2022-12-28T10:16:29.632Z,98298.19
2022-12-28T10:18:56.302Z,98295.75
2022-12-28T10:21:28.426Z,98288.59
2022-12-28T10:26:45.485Z,98287.97
2022-12-28T10:29:12.180Z,98280.44
2022-12-28T10:31:38.880Z,98276.56
2022-12-28T10:34:05.577Z,98261.28
2022-12-28T10:36:32.322Z,98258.47
2022-12-28T10:38:58.970Z,98258.00
2022-12-28T10:41:25.630Z,98253.25
2022-12-28T10:44:21.615Z,98246.63
2022-12-28T10:46:39.059Z,98248.41
2022-12-28T10:49:07.735Z,98251.81
2022-12-28T10:51:37.706Z,98250.03
2022-12-28T10:54:04.374Z,98237.47
2022-12-28T10:56:31.148Z,98238.97
2022-12-28T10:58:57.937Z,98230.59
2022-12-28T11:01:24.630Z,98220.41
2022-12-28T11:03:51.456Z,98213.34
2022-12-28T11:06:22.768Z,98209.22
2022-12-28T11:08:52.851Z,98207.94
2022-12-28T11:11:19.555Z,98209.91
2022-12-28T11:13:46.225Z,98198.03
2022-12-28T11:16:12.963Z,98200.69
2022-12-28T11:18:39.661Z,98196.75
2022-12-28T11:21:06.392Z,98193.94
2022-12-28T11:23:33.060Z,98191.00
2022-12-28T11:25:59.788Z,98184.69
2022-12-28T11:28:26.500Z,98171.94
2022-12-28T11:30:53.185Z,98171.72
2022-12-28T11:33:20.030Z,98174.41
2022-12-28T11:35:46.708Z,98172.94
2022-12-28T11:38:13.424Z,98158.31
2022-12-28T11:40:40.130Z,98157.97
2022-12-28T11:43:06.778Z,98151.53
2022-12-28T11:45:33.565Z,98148.03
2022-12-28T11:48:00.299Z,98130.50
2022-12-28T11:50:27.116Z,98126.56
2022-12-28T11:52:53.747Z,98114.28
2022-12-28T11:55:20.401Z,98121.72
2022-12-28T11:57:47.182Z,98119.97
2022-12-28T12:00:18.508Z,98107.41
2022-12-28T12:02:48.806Z,98100.97
2022-12-28T12:05:15.546Z,98101.78
2022-12-28T12:07:42.238Z,98102.66
2022-12-28T12:10:08.966Z,98096.88
2022-12-28T12:12:35.717Z,98096.00
2022-12-28T12:15:02.445Z,98089.84
2022-12-28T12:17:29.176Z,98082.94
2022-12-28T12:19:55.873Z,98080.16
2022-12-28T12:22:22.534Z,98071.47
2022-12-28T12:24:49.227Z,98067.84
2022-12-28T12:27:16.032Z,98063.00
2022-12-28T12:29:42.728Z,98061.19
2022-12-28T12:32:09.381Z,98048.56
2022-12-28T12:34:36.070Z,98043.56
2022-12-28T12:37:02.735Z,98043.84
2022-12-28T12:39:29.436Z,98044.91
2022-12-28T12:41:56.122Z,98054.13
2022-12-28T12:44:22.850Z,98051.22
2022-12-28T12:46:49.474Z,98043.03
2022-12-28T12:49:16.087Z,98051.75
2022-12-28T12:51:42.837Z,98040.69
2022-12-28T12:54:09.463Z,98033.72
2022-12-28T12:56:36.117Z,98041.53
2022-12-28T12:59:02.760Z,98038.28
2022-12-28T13:01:29.491Z,98033.81
2022-12-28T13:03:56.154Z,98032.75
2022-12-28T13:06:22.827Z,98025.84
2022-12-28T13:08:49.548Z,98023.91
2022-12-28T13:11:16.221Z,98015.34
2022-12-28T13:13:42.856Z,98011.91
2022-12-28T13:16:09.637Z,98009.94
2022-12-28T13:18:45.235Z,98016.63
2022-12-28T13:21:13.086Z,98013.66
2022-12-28T13:23:39.860Z,98012.00
2022-12-28T13:26:06.546Z,98007.34
2022-12-28T13:28:33.290Z,98009.81
2022-12-28T13:31:00.007Z,98007.19
2022-12-28T13:33:26.716Z,98010.94
2022-12-28T13:35:53.368Z,98012.13
2022-12-28T13:38:20.282Z,98004.22
2022-12-28T13:40:46.988Z,98007.00
2022-12-28T13:43:13.665Z,98001.72
2022-12-28T13:45:40.304Z,97990.00
2022-12-28T13:48:07.009Z,97990.66
2022-12-28T13:50:33.653Z,97985.66
2022-12-28T13:53:00.325Z,97980.97
2022-12-28T13:55:26.973Z,97977.78
2022-12-28T13:57:59.152Z,97983.50
2022-12-28T14:00:26.255Z,97981.66
2022-12-28T14:02:53.002Z,97975.44
2022-12-28T14:05:19.693Z,97984.00
2022-12-28T14:07:46.389Z,97979.31
2022-12-28T14:10:13.063Z,97977.88
2022-12-28T14:12:39.727Z,97978.28
2022-12-28T14:15:06.420Z,97974.03
2022-12-28T14:17:34.451Z,97982.75
2022-12-28T14:20:01.337Z,97985.38
2022-12-28T14:22:28.280Z,97993.38
2022-12-28T14:24:54.911Z,97993.22
2022-12-28T14:27:21.627Z,97992.22
2022-12-28T14:29:48.281Z,97993.75
2022-12-28T14:32:14.937Z,97991.63
2022-12-28T14:34:41.578Z,97989.50
2022-12-28T14:37:08.277Z,97973.84
2022-12-28T14:39:35.011Z,97983.47
2022-12-28T14:42:01.707Z,97985.34
2022-12-28T14:44:28.348Z,97977.88
2022-12-28T14:46:55.073Z,97983.44
2022-12-28T14:49:21.823Z,97977.00
2022-12-28T14:51:48.476Z,97970.53
2022-12-28T14:54:16.199Z,97983.72
2022-12-28T14:56:42.944Z,97987.09
2022-12-28T14:59:09.591Z,97985.16
2022-12-28T15:01:36.370Z,98000.16
2022-12-28T15:04:03.095Z,97996.94
2022-12-28T15:06:29.820Z,97992.53
2022-12-28T15:08:56.541Z,97988.59
2022-12-28T15:11:23.247Z,97990.41
2022-12-28T15:13:49.885Z,97992.38
2022-12-28T15:16:17.829Z,97989.63
2022-12-28T15:18:44.662Z,97986.81
2022-12-28T15:21:11.365Z,97989.56
2022-12-28T15:23:37.988Z,97983.84
2022-12-28T15:26:04.969Z,97980.72
2022-12-28T15:28:31.615Z,97985.06
2022-12-28T15:30:58.323Z,97984.88
2022-12-28T15:33:25.030Z,97987.66
2022-12-28T15:35:51.661Z,97986.28
2022-12-28T15:38:18.354Z,97985.31
2022-12-28T15:40:44.994Z,97984.78
2022-12-28T15:43:11.639Z,97983.94
2022-12-28T15:45:38.276Z,97992.25
2022-12-28T15:48:04.969Z,97988.81
2022-12-28T15:50:31.647Z,97979.47
2022-12-28T15:52:58.321Z,97977.66
2022-12-28T15:55:25.000Z,97983.03
2022-12-28T15:57:51.636Z,97989.66
2022-12-28T16:00:18.308Z,97987.81
2022-12-28T16:02:45.087Z,97983.34
2022-12-28T16:05:11.878Z,97977.94
2022-12-28T16:07:38.595Z,97984.03
2022-12-28T16:10:05.266Z,97992.53
2022-12-28T16:12:31.974Z,97988.00
2022-12-28T16:14:58.635Z,97993.56
2022-12-28T16:17:25.267Z,97994.22
2022-12-28T16:19:51.942Z,97987.47
2022-12-28T16:22:18.600Z,97993.19
2022-12-28T16:24:45.296Z,97992.81
2022-12-28T16:27:11.934Z,97992.41
2022-12-28T16:29:38.672Z,97983.47
2022-12-28T16:32:05.422Z,97984.78
2022-12-28T16:34:32.152Z,97989.75
2022-12-28T16:36:58.788Z,97986.47
2022-12-28T16:39:25.514Z,97987.31
2022-12-28T16:41:52.147Z,97986.16
2022-12-28T16:44:18.850Z,97985.81
2022-12-28T16:46:45.544Z,97990.41
2022-12-28T16:49:12.217Z,97988.94
2022-12-28T16:51:38.886Z,97989.19
2022-12-28T16:54:05.549Z,97990.81
2022-12-28T16:56:32.281Z,97992.19
2022-12-28T16:58:58.964Z,97998.88
2022-12-28T17:01:25.804Z,97993.06
2022-12-28T17:03:52.598Z,97991.41
2022-12-28T17:06:19.257Z,97988.13
2022-12-28T17:08:45.898Z,97987.00
2022-12-28T17:11:12.613Z,97986.38
2022-12-28T17:13:39.290Z,97985.34
2022-12-28T17:16:06.059Z,97981.66
2022-12-28T17:18:33.193Z,97985.41
2022-12-28T17:21:04.883Z,97981.28
2022-12-28T17:23:33.286Z,97978.94
2022-12-28T17:25:59.914Z,97982.00
2022-12-28T17:28:26.603Z,97982.50
2022-12-28T17:30:53.269Z,97981.59
2022-12-28T17:33:19.919Z,97974.75
2022-12-28T17:35:46.608Z,97977.75
2022-12-28T17:38:13.280Z,97975.66
2022-12-28T17:40:39.954Z,97987.50
2022-12-28T17:43:06.604Z,97972.69
2022-12-28T17:45:33.385Z,97975.53
2022-12-28T17:48:00.156Z,97966.34
2022-12-28T17:50:26.840Z,97964.25
2022-12-28T17:52:53.540Z,97962.47
2022-12-28T17:55:20.260Z,97953.09
2022-12-28T17:57:46.987Z,97955.78
2022-12-28T18:00:13.613Z,97956.06
2022-12-28T18:02:40.485Z,97957.28
2022-12-28T18:05:07.251Z,97953.53
2022-12-28T18:07:33.928Z,97957.78
2022-12-28T18:10:00.651Z,97957.13
2022-12-28T18:12:27.682Z,97949.06
2022-12-28T18:14:54.370Z,97945.06
2022-12-28T18:17:21.042Z,97951.78
2022-12-28T18:19:47.736Z,97948.94
2022-12-28T18:22:14.474Z,97938.81
2022-12-28T18:24:41.112Z,97944.03
2022-12-28T18:27:07.818Z,97932.75
2022-12-28T18:29:34.480Z,97945.41
2022-12-28T18:32:01.169Z,97936.50
2022-12-28T18:34:27.785Z,97931.28
2022-12-28T18:36:54.544Z,97927.53
2022-12-28T18:39:21.249Z,97923.97
2022-12-28T18:41:48.093Z,97915.78
2022-12-28T18:44:14.749Z,97911.50
2022-12-28T18:46:41.481Z,97914.97
2022-12-28T18:49:08.195Z,97910.41
2022-12-28T18:51:34.881Z,97911.13
2022-12-28T18:54:01.740Z,97908.50
2022-12-28T18:56:28.470Z,97908.66
2022-12-28T18:58:55.198Z,97909.06
2022-12-28T19:01:56.023Z,97903.03
2022-12-28T19:04:08.641Z,97908.13
2022-12-28T19:06:35.556Z,97899.31
2022-12-28T19:09:02.369Z,97905.09
2022-12-28T19:11:29.143Z,97900.72
2022-12-28T19:13:55.873Z,97905.50
2022-12-28T19:16:30.267Z,97895.22
2022-12-28T19:18:57.646Z,97893.44
2022-12-28T19:21:24.560Z,97898.09
2022-12-28T19:23:59.118Z,97893.03
2022-12-28T19:26:25.873Z,97897.16
2022-12-28T19:28:52.604Z,97890.03
2022-12-28T19:31:19.376Z,97888.09
2022-12-28T19:33:46.114Z,97895.22
2022-12-28T19:36:12.918Z,97893.31
2022-12-28T19:38:39.850Z,97896.56
2022-12-28T19:41:08.265Z,97897.41
2022-12-28T19:43:34.920Z,97890.28
2022-12-28T19:46:01.720Z,97885.88
2022-12-28T19:48:28.580Z,97883.69
2022-12-28T19:50:55.886Z,97889.88
2022-12-28T19:53:22.669Z,97892.00
2022-12-28T19:55:51.830Z,97883.28
2022-12-28T19:58:18.877Z,97876.44
2022-12-28T20:00:48.137Z,97884.59
2022-12-28T20:03:15.187Z,97880.59
2022-12-28T20:05:42.427Z,97873.47
2022-12-28T20:08:11.937Z,97871.84
2022-12-28T20:10:48.882Z,97873.53
2022-12-28T20:13:22.878Z,97874.75
2022-12-28T20:15:49.671Z,97869.13
2022-12-28T20:18:20.731Z,97873.94
2022-12-28T20:21:17.985Z,97878.63
2022-12-28T20:23:35.347Z,97862.34
2022-12-28T20:26:02.086Z,97861.00
2022-12-28T20:28:38.326Z,97856.66
2022-12-28T20:31:05.144Z,97859.97
2022-12-28T20:33:32.546Z,97858.84
2022-12-28T20:35:59.435Z,97850.63
2022-12-28T20:38:26.218Z,97841.88
2022-12-28T20:40:53.087Z,97833.94
2022-12-28T20:43:19.826Z,97844.47
2022-12-28T20:45:54.088Z,97836.91
2022-12-28T20:48:22.780Z,97842.09
2022-12-28T20:50:49.413Z,97835.38
2022-12-28T20:53:16.264Z,97840.34
2022-12-28T20:55:43.004Z,97839.50
2022-12-28T20:58:09.780Z,97835.19
2022-12-28T21:00:36.592Z,97832.31
2022-12-28T21:03:03.310Z,97827.31
2022-12-28T21:05:29.993Z,97825.13
2022-12-28T21:07:56.661Z,97834.19
2022-12-28T21:10:23.336Z,97827.59
2022-12-28T21:12:49.972Z,97831.03
2022-12-28T21:15:16.608Z,97833.75
2022-12-28T21:17:43.219Z,97830.97
2022-12-28T21:20:09.849Z,97828.25
2022-12-28T21:22:36.568Z,97836.00
2022-12-28T21:25:03.201Z,97827.94
2022-12-28T21:27:29.883Z,97823.97
2022-12-28T21:29:56.520Z,97821.22
2022-12-28T21:32:23.217Z,97810.44
2022-12-28T21:34:49.960Z,97795.13
2022-12-28T21:37:16.635Z,97800.84
2022-12-28T21:39:43.328Z,97788.53
2022-12-28T21:42:09.995Z,97784.16
2022-12-28T21:44:37.159Z,97779.13
2022-12-28T21:47:03.827Z,97773.91
2022-12-28T21:49:30.550Z,97781.94
2022-12-28T21:51:57.277Z,97781.41
2022-12-28T21:54:23.914Z,97770.47
2022-12-28T21:56:50.601Z,97767.59
2022-12-28T21:59:17.324Z,97762.81
2022-12-28T22:01:44.354Z,97761.84
2022-12-28T22:04:11.071Z,97757.31
2022-12-28T22:06:37.716Z,97753.78
2022-12-28T22:09:04.364Z,97756.22
2022-12-28T22:11:31.050Z,97744.19
2022-12-28T22:13:57.779Z,97744.44
2022-12-28T22:16:24.513Z,97745.25
2022-12-28T22:19:01.997Z,97748.84
2022-12-28T22:21:29.544Z,97742.50
2022-12-28T22:23:56.200Z,97741.44
2022-12-28T22:26:22.832Z,97750.34
2022-12-28T22:28:49.562Z,97754.00
2022-12-28T22:31:16.230Z,97741.69
2022-12-28T22:33:42.889Z,97741.44
2022-12-28T22:36:09.648Z,97736.88
2022-12-28T22:38:36.329Z,97736.50
2022-12-28T22:41:02.976Z,97731.69
2022-12-28T22:43:29.651Z,97728.97
2022-12-28T22:45:56.377Z,97727.31
2022-12-28T22:48:23.011Z,97719.78
2022-12-28T22:50:49.668Z,97724.94
2022-12-28T22:53:16.497Z,97711.16
2022-12-28T22:55:43.126Z,97720.47
2022-12-28T22:58:09.788Z,97713.09
2022-12-28T23:00:36.515Z,97710.22
2022-12-28T23:03:03.207Z,97710.22
2022-12-28T23:05:29.899Z,97716.19
2022-12-28T23:07:56.575Z,97718.25
2022-12-28T23:10:23.207Z,97716.78
2022-12-28T23:12:49.868Z,97711.59
2022-12-28T23:15:16.561Z,97710.50
2022-12-28T23:17:43.295Z,97712.13
2022-12-28T23:20:09.985Z,97705.41
2022-12-28T23:22:36.699Z,97702.66
2022-12-28T23:25:03.315Z,97700.75
2022-12-28T23:27:30.039Z,97702.91
2022-12-28T23:29:56.769Z,97699.06
2022-12-28T23:32:23.437Z,97697.53
2022-12-28T23:34:50.137Z,97677.19
2022-12-28T23:37:16.809Z,97679.91
2022-12-28T23:39:43.507Z,97678.13
2022-12-28T23:42:10.174Z,97670.59
2022-12-28T23:44:36.826Z,97671.31
2022-12-28T23:47:03.588Z,97674.78
2022-12-28T23:49:30.248Z,97666.97
2022-12-28T23:51:56.935Z,97658.34
2022-12-28T23:54:23.639Z,97653.28
2022-12-28T23:56:50.257Z,97658.16
2022-12-28T23:59:16.938Z,97653.66
